createdAt,value
2023-02-17T00:01:37.329Z,5.90
2023-02-17T00:04:05.724Z,5.90
2023-02-17T00:06:33.776Z,5.80
2023-02-17T00:09:03.808Z,5.80
2023-02-17T00:11:31.871Z,5.80
2023-02-17T00:14:00.573Z,5.80
2023-02-17T00:16:29.535Z,5.80
2023-02-17T00:18:59.606Z,5.90
2023-02-17T00:21:31.175Z,5.90
2023-02-17T00:23:59.769Z,5.90
2023-02-17T00:26:29.247Z,6.00
2023-02-17T00:28:59.023Z,6.10
2023-02-17T00:31:27.151Z,6.10
2023-02-17T00:33:56.176Z,6.10
2023-02-17T00:36:24.838Z,6.10
2023-02-17T00:38:54.468Z,6.10
2023-02-17T00:41:23.433Z,6.10
2023-02-17T00:43:52.932Z,6.10
2023-02-17T00:46:21.582Z,6.10
2023-02-17T00:48:50.319Z,6.10
2023-02-17T00:51:18.819Z,6.10
2023-02-17T00:53:47.291Z,6.10
2023-02-17T00:56:15.555Z,6.20
2023-02-17T00:58:44.232Z,6.10
2023-02-17T01:01:14.022Z,6.10
2023-02-17T01:03:42.349Z,6.20
2023-02-17T01:06:18.253Z,6.20
2023-02-17T01:08:46.261Z,6.20
2023-02-17T01:11:18.901Z,6.10
2023-02-17T01:13:47.002Z,6.10
2023-02-17T01:16:21.343Z,6.20
2023-02-17T01:18:49.636Z,6.20
2023-02-17T01:21:19.387Z,6.20
2023-02-17T01:23:49.277Z,6.30
2023-02-17T01:26:18.736Z,6.30
2023-02-17T01:28:47.414Z,6.40
2023-02-17T01:31:15.822Z,6.40
2023-02-17T01:33:45.265Z,6.40
2023-02-17T01:36:15.402Z,6.40
2023-02-17T01:38:43.747Z,6.40
2023-02-17T01:41:12.643Z,6.40
2023-02-17T01:43:40.955Z,6.50
2023-02-17T01:46:10.448Z,6.40
2023-02-17T01:48:44.397Z,6.50
2023-02-17T01:51:19.926Z,6.50
2023-02-17T01:53:51.972Z,6.50
2023-02-17T01:56:20.529Z,6.60
2023-02-17T01:59:02.352Z,6.60
2023-02-17T02:01:30.899Z,6.60
2023-02-17T02:04:01.422Z,6.70
2023-02-17T02:06:32.205Z,6.70
2023-02-17T02:09:07.835Z,6.70
2023-02-17T02:11:36.931Z,6.70
2023-02-17T02:14:08.220Z,6.70
2023-02-17T02:16:47.022Z,6.70
2023-02-17T02:19:42.872Z,6.70
2023-02-17T02:22:40.642Z,6.70
2023-02-17T02:25:26.280Z,6.70
2023-02-17T02:28:07.414Z,6.70
2023-02-17T02:31:01.771Z,6.70
2023-02-17T02:33:40.034Z,6.70
2023-02-17T02:36:13.911Z,6.80
2023-02-17T02:38:45.421Z,6.70
2023-02-17T02:41:18.897Z,6.80
2023-02-17T02:43:46.897Z,6.80
2023-02-17T02:46:15.082Z,6.80
2023-02-17T02:48:45.188Z,6.90
2023-02-17T02:51:34.639Z,6.90
2023-02-17T02:54:20.618Z,6.90
2023-02-17T02:57:19.965Z,6.90
2023-02-17T02:59:58.238Z,6.90
2023-02-17T03:02:35.206Z,6.80
2023-02-17T03:05:12.189Z,6.90
2023-02-17T03:07:44.708Z,6.90
2023-02-17T03:10:12.761Z,6.90
2023-02-17T03:12:41.096Z,6.90
2023-02-17T03:15:15.374Z,7.00
2023-02-17T03:17:43.472Z,7.00
2023-02-17T03:20:14.896Z,6.90
2023-02-17T03:22:46.240Z,7.00
2023-02-17T03:25:15.402Z,7.00
2023-02-17T03:27:43.542Z,7.00
2023-02-17T03:30:12.573Z,7.00
2023-02-17T03:32:41.625Z,7.10
2023-02-17T03:35:10.122Z,7.10
2023-02-17T03:37:39.588Z,7.10
2023-02-17T03:40:09.117Z,7.10
2023-02-17T03:42:37.207Z,7.10
2023-02-17T03:45:05.636Z,7.10
2023-02-17T03:47:33.667Z,7.10
2023-02-17T03:50:01.668Z,7.10
2023-02-17T03:52:29.683Z,7.20
2023-02-17T03:54:59.961Z,7.20
2023-02-17T03:57:28.054Z,7.10
2023-02-17T03:59:56.026Z,7.20
2023-02-17T04:02:24.115Z,7.20
2023-02-17T04:04:52.123Z,7.20
2023-02-17T04:07:20.177Z,7.20
2023-02-17T04:09:48.240Z,7.20
2023-02-17T04:12:17.622Z,7.20
2023-02-17T04:14:45.618Z,7.20
2023-02-17T04:17:13.676Z,7.20
2023-02-17T04:19:41.695Z,7.30
2023-02-17T04:22:09.855Z,7.30
2023-02-17T04:24:38.160Z,7.30
2023-02-17T04:27:06.404Z,7.30
2023-02-17T04:29:36.337Z,7.30
2023-02-17T04:32:04.604Z,7.40
2023-02-17T04:34:32.659Z,7.40
2023-02-17T04:37:00.666Z,7.40
2023-02-17T04:39:28.698Z,7.40
2023-02-17T04:41:56.689Z,7.40
2023-02-17T04:44:24.703Z,7.40
2023-02-17T04:46:54.136Z,7.40
2023-02-17T04:49:22.153Z,7.40
2023-02-17T04:51:50.130Z,7.40
2023-02-17T04:54:18.148Z,7.40
2023-02-17T04:56:46.208Z,7.40
2023-02-17T04:59:14.213Z,7.40
2023-02-17T05:01:42.221Z,7.40
2023-02-17T05:04:11.607Z,7.40
2023-02-17T05:06:39.657Z,7.40
2023-02-17T05:09:07.711Z,7.40
2023-02-17T05:11:35.714Z,7.50
2023-02-17T05:14:03.736Z,7.50
2023-02-17T05:16:31.743Z,7.50
2023-02-17T05:18:59.768Z,7.40
2023-02-17T05:21:29.250Z,7.50
2023-02-17T05:23:57.287Z,7.50
2023-02-17T05:26:25.524Z,7.50
2023-02-17T05:28:53.538Z,7.50
2023-02-17T05:31:21.719Z,7.40
2023-02-17T05:33:49.780Z,7.50
2023-02-17T05:36:17.784Z,7.50
2023-02-17T05:38:49.264Z,7.50
2023-02-17T05:41:17.702Z,7.50
2023-02-17T05:43:46.207Z,7.50
2023-02-17T05:46:14.795Z,7.60
2023-02-17T05:48:42.930Z,7.60
2023-02-17T05:51:10.945Z,7.60
2023-02-17T05:53:38.974Z,7.70
2023-02-17T05:56:08.955Z,7.70
2023-02-17T05:58:37.199Z,7.70
2023-02-17T06:01:09.481Z,7.70
2023-02-17T06:03:38.098Z,7.70
2023-02-17T06:06:07.430Z,7.70
2023-02-17T06:08:36.091Z,7.70
2023-02-17T06:11:04.196Z,7.70
2023-02-17T06:13:33.634Z,7.70
2023-02-17T06:16:01.883Z,7.70
2023-02-17T06:18:30.045Z,7.70
2023-02-17T06:20:58.594Z,7.80
2023-02-17T06:23:27.245Z,7.80
2023-02-17T06:25:55.815Z,7.90
2023-02-17T06:28:23.968Z,7.90
2023-02-17T06:30:53.434Z,7.90
2023-02-17T06:33:21.487Z,7.90
2023-02-17T06:35:50.975Z,7.90
2023-02-17T06:38:19.694Z,8.00
2023-02-17T06:40:48.029Z,8.00
2023-02-17T06:43:16.101Z,8.00
2023-02-17T06:45:44.140Z,8.00
2023-02-17T06:48:13.620Z,8.10
2023-02-17T06:50:41.657Z,8.10
2023-02-17T06:53:09.698Z,8.10
2023-02-17T06:55:39.568Z,8.20
2023-02-17T06:58:08.394Z,8.20
2023-02-17T07:00:36.530Z,8.20
2023-02-17T07:03:04.903Z,8.30
2023-02-17T07:05:36.060Z,8.30
2023-02-17T07:08:04.192Z,8.30
2023-02-17T07:10:32.320Z,8.30
2023-02-17T07:13:00.456Z,8.30
2023-02-17T07:15:28.544Z,8.30
2023-02-17T07:17:56.749Z,8.30
2023-02-17T07:20:24.873Z,8.30
2023-02-17T07:22:54.324Z,8.30
2023-02-17T07:25:22.435Z,8.30
2023-02-17T07:27:50.602Z,8.40
2023-02-17T07:30:19.122Z,8.40
2023-02-17T07:32:47.115Z,8.40
2023-02-17T07:35:15.195Z,8.40
2023-02-17T07:37:43.188Z,8.50
2023-02-17T07:40:13.681Z,8.50
2023-02-17T07:42:41.809Z,8.60
2023-02-17T07:45:10.185Z,8.60
2023-02-17T07:47:38.181Z,8.60
2023-02-17T07:50:09.871Z,8.60
2023-02-17T07:52:37.954Z,8.60
2023-02-17T07:55:06.629Z,8.60
2023-02-17T07:57:36.064Z,8.60
2023-02-17T08:00:04.828Z,8.70
2023-02-17T08:02:32.874Z,8.70
2023-02-17T08:05:00.868Z,8.70
2023-02-17T08:07:28.953Z,8.70
2023-02-17T08:10:14.427Z,8.70
2023-02-17T08:13:01.186Z,8.70
2023-02-17T08:15:29.285Z,8.70
2023-02-17T08:17:58.512Z,8.70
2023-02-17T08:20:26.546Z,8.70
2023-02-17T08:22:54.731Z,8.70
2023-02-17T08:25:22.758Z,8.80
2023-02-17T08:27:52.181Z,8.80
2023-02-17T08:30:20.515Z,8.80
2023-02-17T08:32:48.577Z,8.80
2023-02-17T08:35:17.991Z,8.80
2023-02-17T08:37:46.164Z,8.80
2023-02-17T08:40:14.438Z,8.80
2023-02-17T08:42:42.503Z,8.80
2023-02-17T08:45:14.116Z,8.90
2023-02-17T08:47:42.198Z,8.90
2023-02-17T08:50:11.624Z,8.90
2023-02-17T08:52:39.643Z,8.90
2023-02-17T08:55:08.083Z,9.00
2023-02-17T08:57:36.121Z,9.00
2023-02-17T09:00:06.817Z,9.00
2023-02-17T09:02:37.534Z,9.00
2023-02-17T09:05:06.415Z,9.00
2023-02-17T09:07:34.504Z,9.10
2023-02-17T09:10:02.549Z,9.10
2023-02-17T09:12:30.769Z,9.20
2023-02-17T09:14:58.888Z,9.10
2023-02-17T09:17:26.906Z,9.20
2023-02-17T09:19:56.343Z,9.20
2023-02-17T09:22:31.957Z,9.20
2023-02-17T09:25:00.513Z,9.30
2023-02-17T09:27:28.735Z,9.20
2023-02-17T09:29:56.961Z,9.30
2023-02-17T09:32:25.404Z,9.40
2023-02-17T09:34:54.168Z,9.30
2023-02-17T09:37:24.820Z,9.30
2023-02-17T09:39:52.845Z,9.40
2023-02-17T09:42:22.832Z,9.40
2023-02-17T09:44:54.791Z,9.50
2023-02-17T09:47:26.687Z,9.50
2023-02-17T09:49:58.187Z,9.50
2023-02-17T09:52:33.786Z,9.50
2023-02-17T09:55:06.175Z,9.50
2023-02-17T09:57:37.843Z,9.50
2023-02-17T10:00:11.511Z,9.60
2023-02-17T10:02:48.195Z,9.60
2023-02-17T10:05:21.096Z,9.60
2023-02-17T10:07:55.617Z,9.60
2023-02-17T10:10:27.387Z,9.60
2023-02-17T10:12:59.275Z,9.70
2023-02-17T10:15:31.358Z,9.70
2023-02-17T10:18:05.264Z,9.70
2023-02-17T10:20:36.722Z,9.80
2023-02-17T10:23:12.462Z,9.70
2023-02-17T10:25:52.433Z,9.80
2023-02-17T10:28:30.557Z,9.80
2023-02-17T10:31:04.363Z,9.90
2023-02-17T10:33:38.100Z,9.90
2023-02-17T10:36:18.135Z,10.00
2023-02-17T10:38:52.105Z,10.10
2023-02-17T10:41:24.999Z,10.20
2023-02-17T10:43:53.444Z,10.30
2023-02-17T10:46:29.141Z,10.30
2023-02-17T10:48:59.675Z,10.30
2023-02-17T10:51:30.439Z,10.40
2023-02-17T10:54:04.800Z,10.40
2023-02-17T10:56:39.491Z,10.50
2023-02-17T10:59:13.152Z,10.60
2023-02-17T11:01:42.250Z,10.70
2023-02-17T11:04:13.857Z,10.70
2023-02-17T11:06:45.161Z,10.80
2023-02-17T11:09:23.443Z,10.80
2023-02-17T11:12:00.220Z,10.90
2023-02-17T11:14:30.389Z,11.10
2023-02-17T11:17:00.726Z,11.10
2023-02-17T11:19:31.073Z,11.20
2023-02-17T11:22:00.496Z,11.20
2023-02-17T11:24:32.222Z,11.40
2023-02-17T11:27:02.213Z,11.40
2023-02-17T11:29:32.442Z,11.50
2023-02-17T11:32:04.782Z,11.50
2023-02-17T11:34:36.099Z,11.60
2023-02-17T11:37:20.273Z,11.60
2023-02-17T11:39:51.040Z,11.70
2023-02-17T11:42:23.629Z,11.70
2023-02-17T11:44:52.257Z,11.70
2023-02-17T11:47:30.995Z,11.80
2023-02-17T11:50:31.800Z,11.90
2023-02-17T11:53:21.462Z,11.90
2023-02-17T11:56:03.324Z,12.00
2023-02-17T11:58:45.317Z,12.00
2023-02-17T12:01:29.098Z,12.10
2023-02-17T12:04:26.589Z,12.10
2023-02-17T12:07:15.660Z,12.20
2023-02-17T12:09:51.774Z,12.20
2023-02-17T12:12:30.732Z,12.20
2023-02-17T12:15:07.910Z,12.20
2023-02-17T12:17:45.011Z,12.20
2023-02-17T12:20:34.176Z,12.20
2023-02-17T12:23:14.907Z,12.30
2023-02-17T12:25:50.906Z,12.30
2023-02-17T12:28:42.180Z,12.40
2023-02-17T12:31:19.131Z,12.40
2023-02-17T12:33:57.654Z,12.30
2023-02-17T12:36:31.483Z,12.40
2023-02-17T12:39:03.957Z,12.50
2023-02-17T12:41:36.506Z,12.60
2023-02-17T12:44:11.180Z,12.60
2023-02-17T12:46:42.517Z,12.70
2023-02-17T12:49:15.128Z,12.80
2023-02-17T12:51:46.884Z,13.00
2023-02-17T12:54:21.843Z,12.90
2023-02-17T12:57:17.319Z,13.00
2023-02-17T12:59:50.355Z,13.10
2023-02-17T13:02:20.274Z,13.20
2023-02-17T13:04:52.061Z,13.20
2023-02-17T13:07:27.592Z,13.40
2023-02-17T13:09:57.835Z,13.50
2023-02-17T13:12:36.838Z,13.50
2023-02-17T13:15:09.472Z,13.50
2023-02-17T13:17:40.638Z,13.60
2023-02-17T13:20:27.701Z,13.70
2023-02-17T13:23:07.440Z,13.80
2023-02-17T13:25:37.883Z,13.80
2023-02-17T13:28:33.336Z,13.90
2023-02-17T13:31:16.503Z,13.90
2023-02-17T13:33:48.303Z,13.90
2023-02-17T13:36:23.288Z,14.00
2023-02-17T13:39:01.703Z,14.10
2023-02-17T13:41:31.102Z,14.00
2023-02-17T13:43:59.144Z,13.90
2023-02-17T13:46:28.888Z,13.80
2023-02-17T13:49:02.958Z,13.80
2023-02-17T13:51:32.844Z,13.60
2023-02-17T13:54:08.253Z,13.60
2023-02-17T13:56:36.504Z,13.50
2023-02-17T13:59:09.584Z,13.50
2023-02-17T14:01:42.688Z,13.40
2023-02-17T14:04:21.861Z,13.40
2023-02-17T14:06:51.191Z,13.30
2023-02-17T14:09:24.751Z,13.30
2023-02-17T14:11:54.153Z,13.30
2023-02-17T14:14:23.586Z,13.20
2023-02-17T14:17:02.185Z,13.20
2023-02-17T14:19:30.674Z,13.20
2023-02-17T14:22:01.671Z,13.10
2023-02-17T14:24:32.563Z,13.10
2023-02-17T14:27:05.708Z,13.10
2023-02-17T14:29:41.688Z,13.10
2023-02-17T14:32:30.063Z,13.10
2023-02-17T14:35:09.804Z,13.00
2023-02-17T14:37:37.871Z,13.10
2023-02-17T14:40:07.118Z,13.00
2023-02-17T14:42:35.208Z,13.00
2023-02-17T14:45:03.202Z,12.90
2023-02-17T14:47:32.600Z,13.00
2023-02-17T14:50:00.636Z,13.00
2023-02-17T14:52:28.707Z,13.00
2023-02-17T14:54:56.739Z,12.90
2023-02-17T14:57:28.458Z,12.90
2023-02-17T14:59:57.814Z,13.00
2023-02-17T15:02:25.939Z,13.00
2023-02-17T15:04:55.376Z,13.10
2023-02-17T15:07:24.298Z,13.20
2023-02-17T15:09:52.335Z,13.30
2023-02-17T15:12:22.489Z,13.30
2023-02-17T15:14:50.464Z,13.30
2023-02-17T15:17:18.494Z,13.40
2023-02-17T15:19:46.547Z,13.40
2023-02-17T15:22:16.118Z,13.40
2023-02-17T15:24:44.219Z,13.50
2023-02-17T15:27:15.032Z,13.40
2023-02-17T15:29:43.135Z,13.50
2023-02-17T15:32:18.844Z,13.50
2023-02-17T15:34:47.472Z,13.50
2023-02-17T15:37:16.864Z,13.40
2023-02-17T15:39:44.875Z,13.40
2023-02-17T15:42:15.446Z,13.50
2023-02-17T15:44:49.057Z,13.40
2023-02-17T15:47:19.387Z,13.40
2023-02-17T15:49:47.747Z,13.40
2023-02-17T15:52:17.125Z,13.40
2023-02-17T15:54:48.310Z,13.40
2023-02-17T15:57:22.932Z,13.50
2023-02-17T15:59:51.273Z,13.40
2023-02-17T16:02:22.094Z,13.30
2023-02-17T16:04:50.270Z,13.30
2023-02-17T16:07:19.699Z,13.20
2023-02-17T16:09:47.745Z,13.10
2023-02-17T16:12:18.561Z,13.10
2023-02-17T16:14:46.667Z,13.10
2023-02-17T16:17:17.266Z,13.00
2023-02-17T16:19:45.313Z,13.00
2023-02-17T16:22:13.438Z,12.90
2023-02-17T16:24:42.862Z,12.90
2023-02-17T16:27:15.405Z,12.80
2023-02-17T16:29:44.072Z,12.80
2023-02-17T16:32:13.354Z,12.70
2023-02-17T16:34:42.917Z,12.70
2023-02-17T16:37:17.129Z,12.60
2023-02-17T16:39:47.135Z,12.60
2023-02-17T16:42:15.697Z,12.60
2023-02-17T16:44:44.259Z,12.50
2023-02-17T16:47:20.861Z,12.60
2023-02-17T16:49:50.440Z,12.50
2023-02-17T16:52:25.423Z,12.50
2023-02-17T16:54:54.973Z,12.50
2023-02-17T16:57:23.374Z,12.50
2023-02-17T16:59:51.641Z,12.40
2023-02-17T17:02:21.683Z,12.30
2023-02-17T17:04:49.942Z,12.30
2023-02-17T17:07:18.134Z,12.30
2023-02-17T17:10:06.777Z,12.20
2023-02-17T17:12:35.680Z,12.20
2023-02-17T17:15:04.394Z,12.30
2023-02-17T17:17:37.306Z,12.20
2023-02-17T17:20:05.621Z,12.20
2023-02-17T17:22:33.634Z,12.20
2023-02-17T17:25:01.636Z,12.20
2023-02-17T17:27:29.742Z,12.10
2023-02-17T17:29:59.158Z,12.10
2023-02-17T17:32:27.367Z,12.10
2023-02-17T17:34:56.056Z,12.10
2023-02-17T17:37:24.089Z,12.00
2023-02-17T17:39:52.116Z,12.00
2023-02-17T17:42:20.131Z,12.00
2023-02-17T17:44:48.145Z,11.90
2023-02-17T17:47:29.446Z,11.90
2023-02-17T17:49:58.206Z,11.90
2023-02-17T17:52:26.259Z,11.90
2023-02-17T17:54:54.298Z,11.90
2023-02-17T17:57:22.586Z,11.90
2023-02-17T17:59:50.725Z,11.80
2023-02-17T18:02:20.136Z,11.80
2023-02-17T18:04:48.325Z,11.80
2023-02-17T18:07:16.601Z,11.70
2023-02-17T18:09:44.675Z,11.80
2023-02-17T18:12:15.899Z,11.70
2023-02-17T18:14:45.175Z,11.70
2023-02-17T18:17:15.796Z,11.80
2023-02-17T18:19:45.825Z,11.70
2023-02-17T18:22:14.016Z,11.60
2023-02-17T18:24:42.182Z,11.60
2023-02-17T18:27:10.200Z,11.60
2023-02-17T18:29:38.167Z,11.60
2023-02-17T18:32:06.342Z,11.50
2023-02-17T18:34:34.695Z,11.50
2023-02-17T18:37:04.200Z,11.50
2023-02-17T18:39:32.198Z,11.50
2023-02-17T18:42:00.337Z,11.50
2023-02-17T18:44:28.793Z,11.40
2023-02-17T18:46:56.867Z,11.40
2023-02-17T18:49:24.881Z,11.40
2023-02-17T18:51:53.732Z,11.40
2023-02-17T18:54:23.151Z,11.40
2023-02-17T18:56:51.155Z,11.40
2023-02-17T18:59:19.457Z,11.40
2023-02-17T19:01:47.474Z,11.30
2023-02-17T19:04:16.298Z,11.30
2023-02-17T19:06:44.358Z,11.30
2023-02-17T19:09:12.363Z,11.30
2023-02-17T19:11:41.753Z,11.30
2023-02-17T19:14:09.728Z,11.30
2023-02-17T19:16:39.191Z,11.30
2023-02-17T19:19:07.179Z,11.30
2023-02-17T19:21:36.420Z,11.30
2023-02-17T19:24:04.794Z,11.30
2023-02-17T19:26:34.131Z,11.20
2023-02-17T19:29:03.636Z,11.30
2023-02-17T19:31:31.800Z,11.20
2023-02-17T19:33:59.921Z,11.20
2023-02-17T19:36:28.097Z,11.20
2023-02-17T19:38:57.734Z,11.20
2023-02-17T19:41:25.811Z,11.20
2023-02-17T19:43:53.882Z,11.20
2023-02-17T19:46:25.606Z,11.20
2023-02-17T19:48:53.766Z,11.20
2023-02-17T19:51:22.200Z,11.20
2023-02-17T19:53:50.199Z,11.20
2023-02-17T19:56:20.299Z,11.20
2023-02-17T19:58:49.529Z,11.20
2023-02-17T20:01:19.695Z,11.20
2023-02-17T20:03:49.424Z,11.10
2023-02-17T20:06:21.067Z,11.10
2023-02-17T20:08:54.035Z,11.00
2023-02-17T20:11:22.166Z,11.00
2023-02-17T20:13:50.257Z,10.90
2023-02-17T20:16:19.169Z,10.80
2023-02-17T20:18:50.373Z,10.70
2023-02-17T20:21:19.845Z,10.60
2023-02-17T20:23:47.894Z,10.60
2023-02-17T20:26:19.879Z,10.60
2023-02-17T20:28:48.230Z,10.60
2023-02-17T20:31:16.924Z,10.60
2023-02-17T20:33:45.140Z,10.50
2023-02-17T20:36:14.618Z,10.50
2023-02-17T20:38:43.338Z,10.40
2023-02-17T20:41:15.214Z,10.30
2023-02-17T20:43:43.243Z,10.40
2023-02-17T20:46:15.151Z,10.40
2023-02-17T20:48:43.160Z,10.40
2023-02-17T20:51:11.172Z,10.40
2023-02-17T20:53:40.574Z,10.40
2023-02-17T20:56:14.163Z,10.40
2023-02-17T20:58:42.685Z,10.40
2023-02-17T21:01:10.870Z,10.40
2023-02-17T21:03:39.202Z,10.40
2023-02-17T21:06:20.040Z,10.40
2023-02-17T21:08:51.687Z,10.40
2023-02-17T21:11:19.720Z,10.40
2023-02-17T21:13:48.013Z,10.50
2023-02-17T21:16:18.816Z,10.60
2023-02-17T21:18:47.946Z,10.60
2023-02-17T21:21:16.467Z,10.60
2023-02-17T21:23:44.960Z,10.60
2023-02-17T21:26:14.812Z,10.60
2023-02-17T21:28:43.126Z,10.70
2023-02-17T21:31:11.402Z,10.60
2023-02-17T21:33:42.083Z,10.60
2023-02-17T21:36:11.464Z,10.60
2023-02-17T21:38:39.616Z,10.60
2023-02-17T21:41:10.637Z,10.60
2023-02-17T21:43:58.257Z,10.60
2023-02-17T21:46:26.875Z,10.60
2023-02-17T21:48:55.968Z,10.60
2023-02-17T21:51:24.711Z,10.70
2023-02-17T21:53:53.614Z,10.80
2023-02-17T21:56:22.484Z,10.70
2023-02-17T21:58:53.715Z,10.80
2023-02-17T22:01:23.192Z,10.80
2023-02-17T22:03:51.216Z,10.80
2023-02-17T22:06:21.196Z,10.80
2023-02-17T22:08:49.192Z,10.70
2023-02-17T22:11:19.421Z,10.70
2023-02-17T22:13:47.447Z,10.80
2023-02-17T22:16:16.902Z,10.80
2023-02-17T22:18:44.931Z,10.80
2023-02-17T22:21:14.785Z,10.80
2023-02-17T22:23:43.633Z,10.80
2023-02-17T22:26:14.006Z,10.70
2023-02-17T22:28:42.063Z,10.70
2023-02-17T22:31:12.744Z,10.80
2023-02-17T22:33:42.380Z,10.70
2023-02-17T22:36:12.497Z,10.80
2023-02-17T22:38:40.656Z,10.90
2023-02-17T22:41:10.239Z,10.80
2023-02-17T22:43:39.880Z,10.80
2023-02-17T22:46:09.666Z,10.80
2023-02-17T22:48:39.540Z,10.80
2023-02-17T22:51:11.631Z,10.90
2023-02-17T22:53:40.296Z,10.80
2023-02-17T22:56:09.367Z,10.90
2023-02-17T22:58:38.086Z,10.90
2023-02-17T23:01:07.619Z,10.90
2023-02-17T23:03:36.330Z,10.90
2023-02-17T23:06:06.918Z,10.90
2023-02-17T23:08:36.634Z,11.00
2023-02-17T23:11:06.340Z,10.90
2023-02-17T23:13:35.168Z,10.90
2023-02-17T23:16:03.725Z,10.90
2023-02-17T23:18:33.696Z,10.80
2023-02-17T23:21:07.602Z,10.80
2023-02-17T23:23:36.984Z,10.80
2023-02-17T23:26:06.485Z,10.90
2023-02-17T23:28:35.406Z,10.90
2023-02-17T23:31:03.479Z,10.90
2023-02-17T23:33:31.495Z,10.90
2023-02-17T23:35:59.539Z,10.80
2023-02-17T23:38:27.585Z,10.80
2023-02-17T23:40:57.026Z,10.80
2023-02-17T23:43:25.174Z,10.80
2023-02-17T23:45:56.829Z,10.80
2023-02-17T23:48:25.170Z,10.80
2023-02-17T23:50:57.337Z,10.80
2023-02-17T23:53:25.692Z,10.90
2023-02-17T23:56:04.345Z,10.90
2023-02-17T23:58:32.779Z,10.90
